sensor_id;sensor_type;location;lat;lon;timestamp;pressure;altitude;pressure_sealevel;temperature;humidity
64711;BME280;51139;45.626;6.850;2023-02-27T00:00:30;80568.00;;;-6.17;54.08
64711;BME280;51139;45.626;6.850;2023-02-27T00:02:55;80570.03;;;-6.29;54.52
64711;BME280;51139;45.626;6.850;2023-02-27T00:05:21;80570.69;;;-6.09;53.47
64711;BME280;51139;45.626;6.850;2023-02-27T00:07:50;80571.84;;;-6.24;54.39
64711;BME280;51139;45.626;6.850;2023-02-27T00:10:15;80577.00;;;-6.24;54.83
64711;BME280;51139;45.626;6.850;2023-02-27T00:12:41;80562.19;;;-6.04;54.85
64711;BME280;51139;45.626;6.850;2023-02-27T00:15:09;80568.47;;;-5.86;53.69
64711;BME280;51139;45.626;6.850;2023-02-27T00:17:35;80573.09;;;-5.98;53.68
64711;BME280;51139;45.626;6.850;2023-02-27T00:20:01;80568.72;;;-6.03;52.49
64711;BME280;51139;45.626;6.850;2023-02-27T00:22:27;80585.22;;;-5.79;53.12
64711;BME280;51139;45.626;6.850;2023-02-27T00:24:52;80591.53;;;-6.07;53.21
64711;BME280;51139;45.626;6.850;2023-02-27T00:27:18;80589.25;;;-5.97;52.81
64711;BME280;51139;45.626;6.850;2023-02-27T00:29:43;80583.84;;;-5.80;52.60
64711;BME280;51139;45.626;6.850;2023-02-27T00:32:08;80600.06;;;-5.99;52.11
64711;BME280;51139;45.626;6.850;2023-02-27T00:34:34;80588.94;;;-6.07;52.98
64711;BME280;51139;45.626;6.850;2023-02-27T00:36:59;80596.97;;;-6.11;52.40
64711;BME280;51139;45.626;6.850;2023-02-27T00:39:25;80597.88;;;-5.95;52.68
64711;BME280;51139;45.626;6.850;2023-02-27T00:41:50;80596.84;;;-6.19;53.27
64711;BME280;51139;45.626;6.850;2023-02-27T00:44:15;80591.88;;;-6.17;53.04
64711;BME280;51139;45.626;6.850;2023-02-27T00:46:41;80606.06;;;-5.77;53.86
64711;BME280;51139;45.626;6.850;2023-02-27T00:49:06;80601.53;;;-6.17;54.65
64711;BME280;51139;45.626;6.850;2023-02-27T00:51:32;80607.44;;;-5.90;54.22
64711;BME280;51139;45.626;6.850;2023-02-27T00:53:57;80612.72;;;-6.34;54.86
64711;BME280;51139;45.626;6.850;2023-02-27T00:56:22;80615.72;;;-6.10;54.01
64711;BME280;51139;45.626;6.850;2023-02-27T00:58:48;80623.38;;;-6.05;55.37
64711;BME280;51139;45.626;6.850;2023-02-27T01:01:13;80629.44;;;-6.21;55.12
64711;BME280;51139;45.626;6.850;2023-02-27T01:03:39;80626.19;;;-6.22;54.56
64711;BME280;51139;45.626;6.850;2023-02-27T01:06:05;80627.25;;;-5.98;55.61
64711;BME280;51139;45.626;6.850;2023-02-27T01:08:31;80627.72;;;-6.32;56.24
64711;BME280;51139;45.626;6.850;2023-02-27T01:10:56;80629.94;;;-6.42;56.00
64711;BME280;51139;45.626;6.850;2023-02-27T01:13:22;80632.78;;;-6.07;55.12
64711;BME280;51139;45.626;6.850;2023-02-27T01:15:48;80645.25;;;-6.11;55.48
64711;BME280;51139;45.626;6.850;2023-02-27T01:18:13;80643.19;;;-6.13;55.67
64711;BME280;51139;45.626;6.850;2023-02-27T01:20:39;80642.97;;;-6.34;56.17
64711;BME280;51139;45.626;6.850;2023-02-27T01:23:04;80640.47;;;-6.21;56.91
64711;BME280;51139;45.626;6.850;2023-02-27T01:25:30;80643.72;;;-6.20;56.26
64711;BME280;51139;45.626;6.850;2023-02-27T01:27:55;80639.41;;;-6.12;56.22
64711;BME280;51139;45.626;6.850;2023-02-27T01:30:21;80640.13;;;-6.50;56.58
64711;BME280;51139;45.626;6.850;2023-02-27T01:32:46;80645.53;;;-6.53;57.77
64711;BME280;51139;45.626;6.850;2023-02-27T01:35:11;80646.88;;;-6.47;58.79
64711;BME280;51139;45.626;6.850;2023-02-27T01:37:37;80650.97;;;-6.57;59.68
64711;BME280;51139;45.626;6.850;2023-02-27T01:40:03;80657.78;;;-6.02;59.03
64711;BME280;51139;45.626;6.850;2023-02-27T01:42:29;80652.31;;;-6.12;58.73
64711;BME280;51139;45.626;6.850;2023-02-27T01:47:49;80659.19;;;-6.58;59.79
64711;BME280;51139;45.626;6.850;2023-02-27T01:50:17;80656.22;;;-6.68;59.86
64711;BME280;51139;45.626;6.850;2023-02-27T01:52:44;80651.59;;;-6.51;61.78
64711;BME280;51139;45.626;6.850;2023-02-27T01:55:13;80657.72;;;-6.54;61.75
64711;BME280;51139;45.626;6.850;2023-02-27T01:57:40;80659.25;;;-6.45;60.98
64711;BME280;51139;45.626;6.850;2023-02-27T02:00:07;80664.78;;;-6.16;61.09
64711;BME280;51139;45.626;6.850;2023-02-27T02:02:38;80664.63;;;-6.05;59.81
64711;BME280;51139;45.626;6.850;2023-02-27T02:05:07;80671.25;;;-6.48;59.64
64711;BME280;51139;45.626;6.850;2023-02-27T02:07:33;80672.84;;;-6.45;60.38
64711;BME280;51139;45.626;6.850;2023-02-27T02:10:03;80671.44;;;-6.26;61.09
64711;BME280;51139;45.626;6.850;2023-02-27T02:12:33;80662.41;;;-6.33;60.38
64711;BME280;51139;45.626;6.850;2023-02-27T02:14:59;80673.91;;;-6.34;60.55
64711;BME280;51139;45.626;6.850;2023-02-27T02:42:46;80679.19;;;-6.46;62.74
64711;BME280;51139;45.626;6.850;2023-02-27T02:53:37;80691.75;;;-6.17;61.45
64711;BME280;51139;45.626;6.850;2023-02-27T02:56:30;80694.66;;;-6.07;60.04
64711;BME280;51139;45.626;6.850;2023-02-27T02:59:01;80692.16;;;-6.32;60.07
64711;BME280;51139;45.626;6.850;2023-02-27T03:01:41;80689.19;;;-6.42;61.07
64711;BME280;51139;45.626;6.850;2023-02-27T03:04:12;80693.34;;;-6.33;62.44
64711;BME280;51139;45.626;6.850;2023-02-27T03:06:47;80691.72;;;-6.36;63.33
64711;BME280;51139;45.626;6.850;2023-02-27T03:09:22;80700.56;;;-5.93;62.22
64711;BME280;51139;45.626;6.850;2023-02-27T03:11:50;80701.78;;;-6.13;62.94
64711;BME280;51139;45.626;6.850;2023-02-27T03:14:23;80698.97;;;-6.16;62.10
64711;BME280;51139;45.626;6.850;2023-02-27T03:16:53;80705.59;;;-6.39;60.78
64711;BME280;51139;45.626;6.850;2023-02-27T03:19:28;80701.53;;;-6.54;61.97
64711;BME280;51139;45.626;6.850;2023-02-27T03:22:04;80713.38;;;-6.45;63.05
64711;BME280;51139;45.626;6.850;2023-02-27T03:24:36;80707.00;;;-6.63;63.64
64711;BME280;51139;45.626;6.850;2023-02-27T03:27:04;80712.16;;;-6.63;65.21
64711;BME280;51139;45.626;6.850;2023-02-27T03:32:30;80729.13;;;-6.49;66.63
64711;BME280;51139;45.626;6.850;2023-02-27T03:34:59;80725.78;;;-6.43;64.61
64711;BME280;51139;45.626;6.850;2023-02-27T03:37:46;80721.19;;;-6.51;65.51
64711;BME280;51139;45.626;6.850;2023-02-27T03:42:45;80722.09;;;-6.29;62.09
64711;BME280;51139;45.626;6.850;2023-02-27T03:45:32;80740.06;;;-6.42;61.05
64711;BME280;51139;45.626;6.850;2023-02-27T03:48:00;80731.75;;;-6.54;62.35
64711;BME280;51139;45.626;6.850;2023-02-27T03:50:25;80733.69;;;-6.61;64.45
64711;BME280;51139;45.626;6.850;2023-02-27T03:52:51;80725.47;;;-6.59;66.50
64711;BME280;51139;45.626;6.850;2023-02-27T03:55:24;80731.06;;;-6.55;65.33
64711;BME280;51139;45.626;6.850;2023-02-27T03:57:52;80739.03;;;-6.34;65.94
64711;BME280;51139;45.626;6.850;2023-02-27T04:00:20;80737.09;;;-6.52;65.45
64711;BME280;51139;45.626;6.850;2023-02-27T04:02:48;80733.88;;;-6.34;64.60
64711;BME280;51139;45.626;6.850;2023-02-27T04:05:18;80738.56;;;-6.57;64.25
64711;BME280;51139;45.626;6.850;2023-02-27T04:11:09;80745.81;;;-6.55;67.05
64711;BME280;51139;45.626;6.850;2023-02-27T04:13:52;80742.31;;;-7.08;70.92
64711;BME280;51139;45.626;6.850;2023-02-27T04:19:22;80753.75;;;-6.53;69.65
64711;BME280;51139;45.626;6.850;2023-02-27T04:22:29;80754.59;;;-6.45;68.64
64711;BME280;51139;45.626;6.850;2023-02-27T04:27:56;80759.88;;;-6.81;70.44
64711;BME280;51139;45.626;6.850;2023-02-27T04:33:39;80766.78;;;-6.70;67.64
64711;BME280;51139;45.626;6.850;2023-02-27T04:39:12;80769.75;;;-6.61;67.04
64711;BME280;51139;45.626;6.850;2023-02-27T04:41:43;80770.28;;;-6.68;66.57
64711;BME280;51139;45.626;6.850;2023-02-27T04:44:12;80782.41;;;-6.63;66.10
64711;BME280;51139;45.626;6.850;2023-02-27T04:46:41;80779.84;;;-6.63;65.87
64711;BME280;51139;45.626;6.850;2023-02-27T04:49:13;80773.72;;;-6.60;64.19
64711;BME280;51139;45.626;6.850;2023-02-27T04:51:54;80778.72;;;-6.42;64.19
64711;BME280;51139;45.626;6.850;2023-02-27T04:54:26;80780.81;;;-6.66;64.56
64711;BME280;51139;45.626;6.850;2023-02-27T04:56:57;80789.00;;;-6.67;65.84
64711;BME280;51139;45.626;6.850;2023-02-27T04:59:30;80779.91;;;-6.43;65.87
64711;BME280;51139;45.626;6.850;2023-02-27T05:02:18;80786.56;;;-6.29;64.18
64711;BME280;51139;45.626;6.850;2023-02-27T05:04:52;80797.22;;;-6.44;62.95
64711;BME280;51139;45.626;6.850;2023-02-27T05:07:22;80791.06;;;-6.60;61.98
64711;BME280;51139;45.626;6.850;2023-02-27T05:09:58;80795.47;;;-6.55;64.36
64711;BME280;51139;45.626;6.850;2023-02-27T05:13:01;80797.91;;;-6.68;62.80
64711;BME280;51139;45.626;6.850;2023-02-27T05:20:10;80783.97;;;-6.54;61.25
64711;BME280;51139;45.626;6.850;2023-02-27T05:22:59;80792.06;;;-6.44;58.59
64711;BME280;51139;45.626;6.850;2023-02-27T05:28:38;80791.84;;;-6.46;59.07
64711;BME280;51139;45.626;6.850;2023-02-27T05:31:19;80796.06;;;-6.18;58.85
64711;BME280;51139;45.626;6.850;2023-02-27T05:33:49;80785.88;;;-6.10;55.93
64711;BME280;51139;45.626;6.850;2023-02-27T05:39:03;80801.19;;;-6.43;56.88
64711;BME280;51139;45.626;6.850;2023-02-27T05:41:39;80803.66;;;-6.32;57.32
64711;BME280;51139;45.626;6.850;2023-02-27T05:44:19;80791.16;;;-6.47;59.43
64711;BME280;51139;45.626;6.850;2023-02-27T05:46:54;80807.31;;;-6.71;59.22
64711;BME280;51139;45.626;6.850;2023-02-27T05:49:27;80807.59;;;-6.50;59.21
64711;BME280;51139;45.626;6.850;2023-02-27T05:51:57;80809.75;;;-6.54;56.90
64711;BME280;51139;45.626;6.850;2023-02-27T05:54:35;80825.41;;;-6.52;57.90
64711;BME280;51139;45.626;6.850;2023-02-27T05:57:07;80831.44;;;-6.43;58.57
64711;BME280;51139;45.626;6.850;2023-02-27T05:59:37;80840.03;;;-6.60;59.11
64711;BME280;51139;45.626;6.850;2023-02-27T06:02:08;80828.47;;;-6.53;59.59
64711;BME280;51139;45.626;6.850;2023-02-27T06:04:34;80833.19;;;-6.57;60.52
64711;BME280;51139;45.626;6.850;2023-02-27T06:07:00;80836.03;;;-6.61;60.82
64711;BME280;51139;45.626;6.850;2023-02-27T06:09:25;80841.53;;;-6.46;58.70
64711;BME280;51139;45.626;6.850;2023-02-27T06:11:50;80850.13;;;-6.37;56.52
64711;BME280;51139;45.626;6.850;2023-02-27T06:14:16;80837.88;;;-6.06;54.77
64711;BME280;51139;45.626;6.850;2023-02-27T06:16:41;80841.38;;;-6.28;55.57
64711;BME280;51139;45.626;6.850;2023-02-27T06:19:06;80845.72;;;-6.18;55.54
64711;BME280;51139;45.626;6.850;2023-02-27T06:21:32;80856.56;;;-6.50;56.51
64711;BME280;51139;45.626;6.850;2023-02-27T06:23:57;80855.22;;;-6.32;56.31
64711;BME280;51139;45.626;6.850;2023-02-27T06:26:23;80852.63;;;-6.87;58.40
64711;BME280;51139;45.626;6.850;2023-02-27T06:28:48;80856.34;;;-6.52;58.88
64711;BME280;51139;45.626;6.850;2023-02-27T06:31:14;80843.47;;;-6.52;58.72
64711;BME280;51139;45.626;6.850;2023-02-27T06:33:39;80850.06;;;-6.32;59.13
64711;BME280;51139;45.626;6.850;2023-02-27T06:36:05;80855.59;;;-6.22;58.06
64711;BME280;51139;45.626;6.850;2023-02-27T06:38:30;80859.38;;;-6.23;57.28
64711;BME280;51139;45.626;6.850;2023-02-27T06:40:56;80861.09;;;-6.31;58.13
64711;BME280;51139;45.626;6.850;2023-02-27T06:43:21;80859.25;;;-6.36;57.98
64711;BME280;51139;45.626;6.850;2023-02-27T06:45:48;80873.03;;;-6.34;58.01
64711;BME280;51139;45.626;6.850;2023-02-27T06:48:13;80865.81;;;-6.10;56.43
64711;BME280;51139;45.626;6.850;2023-02-27T06:50:39;80870.72;;;-6.07;56.82
64711;BME280;51139;45.626;6.850;2023-02-27T06:53:05;80880.53;;;-6.30;56.57
64711;BME280;51139;45.626;6.850;2023-02-27T06:55:31;80878.47;;;-6.37;57.68
64711;BME280;51139;45.626;6.850;2023-02-27T06:57:57;80880.75;;;-6.28;56.77
64711;BME280;51139;45.626;6.850;2023-02-27T07:00:22;80912.00;;;-6.43;57.44
64711;BME280;51139;45.626;6.850;2023-02-27T07:02:48;80896.81;;;-6.47;58.42
64711;BME280;51139;45.626;6.850;2023-02-27T07:05:14;80904.44;;;-6.05;57.22
64711;BME280;51139;45.626;6.850;2023-02-27T07:07:39;80898.91;;;-6.14;58.50
64711;BME280;51139;45.626;6.850;2023-02-27T07:10:07;80903.75;;;-6.36;60.23
64711;BME280;51139;45.626;6.850;2023-02-27T07:12:35;80906.25;;;-6.24;61.06
64711;BME280;51139;45.626;6.850;2023-02-27T07:15:00;80921.41;;;-6.46;59.43
64711;BME280;51139;45.626;6.850;2023-02-27T07:17:26;80930.38;;;-6.22;60.27
64711;BME280;51139;45.626;6.850;2023-02-27T07:19:51;80926.13;;;-5.69;59.26
64711;BME280;51139;45.626;6.850;2023-02-27T07:22:16;80917.56;;;-6.03;60.72
64711;BME280;51139;45.626;6.850;2023-02-27T07:24:42;80929.66;;;-5.48;61.82
64711;BME280;51139;45.626;6.850;2023-02-27T07:27:07;80940.47;;;-5.24;61.09
64711;BME280;51139;45.626;6.850;2023-02-27T07:29:32;80949.72;;;-5.35;60.09
64711;BME280;51139;45.626;6.850;2023-02-27T07:32:00;80939.75;;;-5.69;60.30
64711;BME280;51139;45.626;6.850;2023-02-27T07:34:26;80944.09;;;-5.58;60.29
64711;BME280;51139;45.626;6.850;2023-02-27T07:36:51;80948.19;;;-5.24;59.38
64711;BME280;51139;45.626;6.850;2023-02-27T07:39:17;80946.31;;;-5.68;60.35
64711;BME280;51139;45.626;6.850;2023-02-27T07:41:43;80957.56;;;-5.21;60.20
64711;BME280;51139;45.626;6.850;2023-02-27T07:44:09;80959.50;;;-5.28;60.63
64711;BME280;51139;45.626;6.850;2023-02-27T07:46:35;80963.53;;;-5.32;59.16
64711;BME280;51139;45.626;6.850;2023-02-27T07:49:00;80951.75;;;-5.77;58.95
64711;BME280;51139;45.626;6.850;2023-02-27T07:51:26;80965.31;;;-5.46;57.28
64711;BME280;51139;45.626;6.850;2023-02-27T07:53:51;80986.03;;;-6.07;58.29
64711;BME280;51139;45.626;6.850;2023-02-27T07:56:17;80973.31;;;-5.50;58.51
64711;BME280;51139;45.626;6.850;2023-02-27T07:58:42;80988.41;;;-5.84;59.39
64711;BME280;51139;45.626;6.850;2023-02-27T08:01:07;80989.06;;;-5.78;57.71
64711;BME280;51139;45.626;6.850;2023-02-27T08:03:33;80982.25;;;-5.76;55.86
64711;BME280;51139;45.626;6.850;2023-02-27T08:05:58;80980.91;;;-5.58;54.95
64711;BME280;51139;45.626;6.850;2023-02-27T08:08:24;80988.44;;;-5.60;55.08
64711;BME280;51139;45.626;6.850;2023-02-27T08:10:49;80980.72;;;-5.60;56.32
64711;BME280;51139;45.626;6.850;2023-02-27T08:13:15;80991.16;;;-5.77;55.89
64711;BME280;51139;45.626;6.850;2023-02-27T08:15:40;80987.22;;;-6.08;57.37
64711;BME280;51139;45.626;6.850;2023-02-27T08:18:06;80999.97;;;-5.61;56.27
64711;BME280;51139;45.626;6.850;2023-02-27T08:20:31;80990.28;;;-5.54;55.83
64711;BME280;51139;45.626;6.850;2023-02-27T08:22:57;80997.34;;;-5.30;53.66
64711;BME280;51139;45.626;6.850;2023-02-27T08:25:23;80996.66;;;-5.36;55.36
64711;BME280;51139;45.626;6.850;2023-02-27T08:27:48;81005.66;;;-5.68;55.22
64711;BME280;51139;45.626;6.850;2023-02-27T08:30:14;81011.13;;;-5.28;55.24
64711;BME280;51139;45.626;6.850;2023-02-27T08:32:41;81015.44;;;-5.36;55.43
64711;BME280;51139;45.626;6.850;2023-02-27T08:35:08;81013.97;;;-5.31;54.93
64711;BME280;51139;45.626;6.850;2023-02-27T08:37:33;81001.19;;;-5.43;54.11
64711;BME280;51139;45.626;6.850;2023-02-27T08:39:58;81006.03;;;-4.89;52.20
64711;BME280;51139;45.626;6.850;2023-02-27T08:42:24;81017.38;;;-4.73;51.40
64711;BME280;51139;45.626;6.850;2023-02-27T08:44:49;81014.03;;;-4.68;51.38
64711;BME280;51139;45.626;6.850;2023-02-27T08:47:15;81020.03;;;-4.79;51.53
64711;BME280;51139;45.626;6.850;2023-02-27T08:49:41;81005.53;;;-4.44;51.25
64711;BME280;51139;45.626;6.850;2023-02-27T08:52:06;81005.53;;;-4.25;50.75
64711;BME280;51139;45.626;6.850;2023-02-27T08:54:34;81012.72;;;-4.36;51.36
64711;BME280;51139;45.626;6.850;2023-02-27T08:57:01;81026.31;;;-4.74;52.34
64711;BME280;51139;45.626;6.850;2023-02-27T08:59:27;81025.84;;;-4.54;52.58
64711;BME280;51139;45.626;6.850;2023-02-27T09:01:52;81033.81;;;-4.71;53.67
64711;BME280;51139;45.626;6.850;2023-02-27T09:04:17;81033.41;;;-5.00;51.96
64711;BME280;51139;45.626;6.850;2023-02-27T09:06:45;81035.88;;;-5.13;53.01
64711;BME280;51139;45.626;6.850;2023-02-27T09:09:10;81039.28;;;-4.99;53.24
64711;BME280;51139;45.626;6.850;2023-02-27T09:11:36;81042.28;;;-4.51;53.22
64711;BME280;51139;45.626;6.850;2023-02-27T09:14:02;81038.72;;;-4.29;53.06
64711;BME280;51139;45.626;6.850;2023-02-27T09:16:27;81047.19;;;-4.28;52.91
64711;BME280;51139;45.626;6.850;2023-02-27T09:18:53;81038.66;;;-4.23;50.72
64711;BME280;51139;45.626;6.850;2023-02-27T09:21:18;81039.47;;;-4.53;52.60
64711;BME280;51139;45.626;6.850;2023-02-27T09:23:44;81044.44;;;-4.17;52.50
64711;BME280;51139;45.626;6.850;2023-02-27T09:26:10;81052.28;;;-4.22;50.54
64711;BME280;51139;45.626;6.850;2023-02-27T09:28:36;81040.16;;;-3.43;49.25
64711;BME280;51139;45.626;6.850;2023-02-27T09:31:05;81049.81;;;-3.44;49.64
64711;BME280;51139;45.626;6.850;2023-02-27T09:33:33;81058.31;;;-3.62;49.38
64711;BME280;51139;45.626;6.850;2023-02-27T09:35:58;81052.56;;;-3.55;48.25
64711;BME280;51139;45.626;6.850;2023-02-27T09:38:24;81070.66;;;-3.88;49.30
64711;BME280;51139;45.626;6.850;2023-02-27T09:40:52;81060.03;;;-3.52;49.68
64711;BME280;51139;45.626;6.850;2023-02-27T09:43:21;81058.13;;;-3.18;48.98
64711;BME280;51139;45.626;6.850;2023-02-27T09:45:51;81053.75;;;-4.27;48.75
64711;BME280;51139;45.626;6.850;2023-02-27T09:50:56;81081.06;;;-4.51;48.55
64711;BME280;51139;45.626;6.850;2023-02-27T09:56:05;81054.25;;;-3.58;47.62
64711;BME280;51139;45.626;6.850;2023-02-27T09:58:40;81081.63;;;-4.20;47.03
64711;BME280;51139;45.626;6.850;2023-02-27T10:09:27;81097.47;;;-3.33;46.83
64711;BME280;51139;45.626;6.850;2023-02-27T10:12:49;81097.13;;;-3.43;46.41
64711;BME280;51139;45.626;6.850;2023-02-27T10:15:27;81085.22;;;-3.19;48.64
64711;BME280;51139;45.626;6.850;2023-02-27T10:18:03;81104.91;;;-2.97;47.65
64711;BME280;51139;45.626;6.850;2023-02-27T10:20:40;81076.63;;;-3.60;49.11
64711;BME280;51139;45.626;6.850;2023-02-27T10:23:17;81100.22;;;-3.45;50.07
64711;BME280;51139;45.626;6.850;2023-02-27T10:25:48;81111.63;;;-3.73;47.54
64711;BME280;51139;45.626;6.850;2023-02-27T10:28:19;81100.91;;;-3.12;51.13
64711;BME280;51139;45.626;6.850;2023-02-27T10:30:51;81108.63;;;-3.77;48.24
64711;BME280;51139;45.626;6.850;2023-02-27T10:35:53;81124.66;;;-3.78;48.64
64711;BME280;51139;45.626;6.850;2023-02-27T10:38:27;81124.25;;;-3.83;48.56
64711;BME280;51139;45.626;6.850;2023-02-27T10:40:55;81129.66;;;-2.83;49.41
64711;BME280;51139;45.626;6.850;2023-02-27T10:43:22;81126.16;;;-3.31;45.87
64711;BME280;51139;45.626;6.850;2023-02-27T10:45:47;81123.94;;;-3.60;47.67
64711;BME280;51139;45.626;6.850;2023-02-27T10:48:13;81114.22;;;-3.73;49.36
64711;BME280;51139;45.626;6.850;2023-02-27T10:50:44;81121.13;;;-3.10;51.71
64711;BME280;51139;45.626;6.850;2023-02-27T10:53:22;81123.31;;;-3.47;48.71
64711;BME280;51139;45.626;6.850;2023-02-27T10:58:23;81125.28;;;-3.53;51.08
64711;BME280;51139;45.626;6.850;2023-02-27T11:00:56;81112.47;;;-3.64;51.87
64711;BME280;51139;45.626;6.850;2023-02-27T11:03:29;81123.34;;;-3.33;49.27
64711;BME280;51139;45.626;6.850;2023-02-27T11:06:19;81126.78;;;-2.79;51.63
64711;BME280;51139;45.626;6.850;2023-02-27T11:09:22;81112.28;;;-2.01;52.71
64711;BME280;51139;45.626;6.850;2023-02-27T11:11:49;81126.63;;;-1.87;51.43
64711;BME280;51139;45.626;6.850;2023-02-27T11:16:52;81127.25;;;-2.35;48.91
64711;BME280;51139;45.626;6.850;2023-02-27T11:22:05;81123.41;;;-1.66;50.13
64711;BME280;51139;45.626;6.850;2023-02-27T11:24:32;81123.91;;;-1.54;46.90
64711;BME280;51139;45.626;6.850;2023-02-27T11:27:00;81119.16;;;-1.91;46.64
64711;BME280;51139;45.626;6.850;2023-02-27T11:29:31;81108.69;;;-2.52;46.37
64711;BME280;51139;45.626;6.850;2023-02-27T11:32:02;81120.44;;;-1.36;51.50
64711;BME280;51139;45.626;6.850;2023-02-27T11:34:35;81110.16;;;-1.07;49.81
64711;BME280;51139;45.626;6.850;2023-02-27T11:37:06;81100.28;;;-1.08;53.82
64711;BME280;51139;45.626;6.850;2023-02-27T11:39:38;81119.78;;;-1.50;51.79
64711;BME280;51139;45.626;6.850;2023-02-27T11:42:16;81120.25;;;-1.99;47.97
64711;BME280;51139;45.626;6.850;2023-02-27T11:45:05;81128.81;;;-0.95;52.06
64711;BME280;51139;45.626;6.850;2023-02-27T11:47:34;81128.34;;;-1.28;49.03
64711;BME280;51139;45.626;6.850;2023-02-27T11:50:04;81117.59;;;-1.59;47.24
64711;BME280;51139;45.626;6.850;2023-02-27T11:52:47;81108.13;;;-1.22;48.36
64711;BME280;51139;45.626;6.850;2023-02-27T11:55:17;81121.13;;;-1.00;48.06
64711;BME280;51139;45.626;6.850;2023-02-27T11:57:48;81115.78;;;-1.51;46.38
64711;BME280;51139;45.626;6.850;2023-02-27T12:00:24;81110.75;;;-0.79;46.36
64711;BME280;51139;45.626;6.850;2023-02-27T12:05:48;81117.53;;;-0.34;53.31
64711;BME280;51139;45.626;6.850;2023-02-27T12:10:47;81108.81;;;-1.56;48.36
64711;BME280;51139;45.626;6.850;2023-02-27T12:13:26;81102.16;;;-1.30;47.08
64711;BME280;51139;45.626;6.850;2023-02-27T12:16:20;81107.31;;;-1.16;47.13
64711;BME280;51139;45.626;6.850;2023-02-27T12:18:53;81115.50;;;-1.47;47.02
64711;BME280;51139;45.626;6.850;2023-02-27T12:21:31;81093.78;;;-1.15;47.39
64711;BME280;51139;45.626;6.850;2023-02-27T12:24:26;81103.38;;;-1.10;48.47
64711;BME280;51139;45.626;6.850;2023-02-27T12:27:15;81085.06;;;-1.73;46.65
64711;BME280;51139;45.626;6.850;2023-02-27T12:29:55;81093.97;;;-0.49;48.51
64711;BME280;51139;45.626;6.850;2023-02-27T12:32:37;81093.88;;;-1.07;45.05
64711;BME280;51139;45.626;6.850;2023-02-27T12:35:18;81073.78;;;-0.85;47.95
64711;BME280;51139;45.626;6.850;2023-02-27T12:37:46;81083.72;;;-0.76;45.00
64711;BME280;51139;45.626;6.850;2023-02-27T12:40:16;81086.41;;;-1.45;46.16
64711;BME280;51139;45.626;6.850;2023-02-27T12:43:27;81076.81;;;-1.51;45.24
64711;BME280;51139;45.626;6.850;2023-02-27T12:46:14;81085.94;;;-0.59;47.21
64711;BME280;51139;45.626;6.850;2023-02-27T12:51:51;81064.75;;;-1.06;46.90
64711;BME280;51139;45.626;6.850;2023-02-27T13:02:42;81059.75;;;-1.25;44.75
64711;BME280;51139;45.626;6.850;2023-02-27T13:16:03;81074.66;;;-1.60;45.59
64711;BME280;51139;45.626;6.850;2023-02-27T13:18:42;81067.22;;;-1.91;47.48
64711;BME280;51139;45.626;6.850;2023-02-27T13:21:30;81077.53;;;-1.50;45.79
64711;BME280;51139;45.626;6.850;2023-02-27T13:36:11;81083.91;;;-1.16;42.97
64711;BME280;51139;45.626;6.850;2023-02-27T13:38:42;81079.16;;;-1.05;44.50
64711;BME280;51139;45.626;6.850;2023-02-27T13:46:33;81081.72;;;-2.22;45.19
64711;BME280;51139;45.626;6.850;2023-02-27T13:54:27;81089.03;;;-1.24;44.08
64711;BME280;51139;45.626;6.850;2023-02-27T14:02:04;81080.03;;;-1.58;44.60
64711;BME280;51139;45.626;6.850;2023-02-27T14:07:30;81083.44;;;-1.63;45.93
64711;BME280;51139;45.626;6.850;2023-02-27T14:10:08;81082.38;;;-1.81;44.73
64711;BME280;51139;45.626;6.850;2023-02-27T14:12:39;81075.47;;;-1.30;46.11
64711;BME280;51139;45.626;6.850;2023-02-27T14:18:03;81081.91;;;-1.45;45.29
64711;BME280;51139;45.626;6.850;2023-02-27T14:31:04;81079.31;;;-0.39;44.93
64711;BME280;51139;45.626;6.850;2023-02-27T14:33:43;81085.31;;;-1.15;44.36
64711;BME280;51139;45.626;6.850;2023-02-27T14:36:19;81081.69;;;-0.91;45.26
64711;BME280;51139;45.626;6.850;2023-02-27T14:38:46;81079.47;;;-1.08;45.30
64711;BME280;51139;45.626;6.850;2023-02-27T14:41:14;81079.00;;;-0.56;45.11
64711;BME280;51139;45.626;6.850;2023-02-27T14:43:47;81076.56;;;-0.83;45.01
64711;BME280;51139;45.626;6.850;2023-02-27T14:46:27;81075.75;;;-0.49;46.17
64711;BME280;51139;45.626;6.850;2023-02-27T14:48:59;81069.19;;;-0.71;44.68
64711;BME280;51139;45.626;6.850;2023-02-27T14:51:26;81078.16;;;-0.51;44.45
64711;BME280;51139;45.626;6.850;2023-02-27T14:54:01;81077.94;;;-1.04;44.38
64711;BME280;51139;45.626;6.850;2023-02-27T14:56:28;81074.97;;;-0.86;45.58
64711;BME280;51139;45.626;6.850;2023-02-27T14:58:53;81078.00;;;-1.17;44.36
64711;BME280;51139;45.626;6.850;2023-02-27T15:01:21;81080.09;;;-1.37;45.56
64711;BME280;51139;45.626;6.850;2023-02-27T15:03:49;81084.41;;;-0.54;45.96
64711;BME280;51139;45.626;6.850;2023-02-27T15:06:19;81079.78;;;-0.69;44.81
64711;BME280;51139;45.626;6.850;2023-02-27T15:08:51;81088.63;;;-0.94;44.20
64711;BME280;51139;45.626;6.850;2023-02-27T15:11:20;81089.25;;;-0.80;45.24
64711;BME280;51139;45.626;6.850;2023-02-27T15:13:47;81094.00;;;-1.48;45.54
64711;BME280;51139;45.626;6.850;2023-02-27T15:18:51;81090.69;;;-1.13;44.81
64711;BME280;51139;45.626;6.850;2023-02-27T15:21:19;81093.72;;;-1.01;45.44
64711;BME280;51139;45.626;6.850;2023-02-27T15:24:02;81093.69;;;-0.67;45.87
64711;BME280;51139;45.626;6.850;2023-02-27T15:26:30;81088.09;;;-0.92;45.15
64711;BME280;51139;45.626;6.850;2023-02-27T15:28:58;81090.56;;;-0.65;45.20
64711;BME280;51139;45.626;6.850;2023-02-27T15:31:25;81089.84;;;-0.45;44.63
64711;BME280;51139;45.626;6.850;2023-02-27T15:33:54;81099.31;;;-1.19;45.35
64711;BME280;51139;45.626;6.850;2023-02-27T15:36:26;81093.88;;;-0.86;46.07
64711;BME280;51139;45.626;6.850;2023-02-27T15:39:15;81100.91;;;-0.73;45.75
64711;BME280;51139;45.626;6.850;2023-02-27T15:41:48;81092.53;;;-1.22;46.32
64711;BME280;51139;45.626;6.850;2023-02-27T15:44:16;81100.88;;;-0.81;46.13
64711;BME280;51139;45.626;6.850;2023-02-27T15:46:44;81102.19;;;-0.88;46.88
64711;BME280;51139;45.626;6.850;2023-02-27T15:49:21;81100.44;;;-1.27;46.88
64711;BME280;51139;45.626;6.850;2023-02-27T15:51:56;81106.03;;;-1.71;47.56
64711;BME280;51139;45.626;6.850;2023-02-27T15:54:23;81097.06;;;-1.36;46.29
64711;BME280;51139;45.626;6.850;2023-02-27T15:56:50;81109.66;;;-1.05;46.26
64711;BME280;51139;45.626;6.850;2023-02-27T15:59:16;81112.94;;;-1.26;45.97
64711;BME280;51139;45.626;6.850;2023-02-27T16:01:43;81108.75;;;-1.08;46.08